sensor_id;sensor_type;location;lat;lon;timestamp;pressure;altitude;pressure_sealevel;temperature;humidity
79465;BME280;68932;47.410;8.232;2023-04-03T00:01:44;97183.23;;;8.61;77.48
79465;BME280;68932;47.410;8.232;2023-04-03T00:04:11;97186.54;;;8.58;77.53
79465;BME280;68932;47.410;8.232;2023-04-03T00:06:38;97185.19;;;8.53;77.43
79465;BME280;68932;47.410;8.232;2023-04-03T00:09:05;97188.75;;;8.50;77.46
79465;BME280;68932;47.410;8.232;2023-04-03T00:11:32;97190.95;;;8.44;77.38
79465;BME280;68932;47.410;8.232;2023-04-03T00:13:59;97193.48;;;8.38;77.52
79465;BME280;68932;47.410;8.232;2023-04-03T00:16:25;97196.79;;;8.35;77.63
79465;BME280;68932;47.410;8.232;2023-04-03T00:18:52;97199.55;;;8.32;77.72
79465;BME280;68932;47.410;8.232;2023-04-03T00:21:19;97196.59;;;8.29;77.98
79465;BME280;68932;47.410;8.232;2023-04-03T00:23:46;97195.77;;;8.25;78.06
79465;BME280;68932;47.410;8.232;2023-04-03T00:26:14;97197.08;;;8.17;77.72
79465;BME280;68932;47.410;8.232;2023-04-03T00:28:40;97201.30;;;8.10;77.70
79465;BME280;68932;47.410;8.232;2023-04-03T00:31:09;97200.22;;;8.03;77.62
79465;BME280;68932;47.410;8.232;2023-04-03T00:33:36;97199.91;;;7.96;77.20
79465;BME280;68932;47.410;8.232;2023-04-03T00:36:07;97200.95;;;7.89;77.00
79465;BME280;68932;47.410;8.232;2023-04-03T00:38:35;97195.89;;;7.86;77.09
79465;BME280;68932;47.410;8.232;2023-04-03T00:41:03;97198.85;;;7.83;77.02
79465;BME280;68932;47.410;8.232;2023-04-03T00:43:30;97196.81;;;7.78;76.80
79465;BME280;68932;47.410;8.232;2023-04-03T00:45:58;97190.70;;;7.74;76.82
79465;BME280;68932;47.410;8.232;2023-04-03T00:48:29;97193.54;;;7.73;76.82
79465;BME280;68932;47.410;8.232;2023-04-03T00:50:56;97191.23;;;7.71;76.76
79465;BME280;68932;47.410;8.232;2023-04-03T00:53:27;97191.39;;;7.68;76.56
79465;BME280;68932;47.410;8.232;2023-04-03T00:55:57;97192.02;;;7.66;76.76
79465;BME280;68932;47.410;8.232;2023-04-03T00:58:28;97198.48;;;7.62;76.62
79465;BME280;68932;47.410;8.232;2023-04-03T01:00:58;97197.02;;;7.53;76.59
79465;BME280;68932;47.410;8.232;2023-04-03T01:03:28;97199.87;;;7.49;76.85
79465;BME280;68932;47.410;8.232;2023-04-03T01:05:55;97203.85;;;7.46;76.98
79465;BME280;68932;47.410;8.232;2023-04-03T01:08:22;97202.13;;;7.42;76.93
79465;BME280;68932;47.410;8.232;2023-04-03T01:10:50;97203.31;;;7.39;76.74
79465;BME280;68932;47.410;8.232;2023-04-03T01:13:23;97207.42;;;7.37;76.41
79465;BME280;68932;47.410;8.232;2023-04-03T01:15:52;97209.37;;;7.32;76.14
79465;BME280;68932;47.410;8.232;2023-04-03T01:18:19;97209.29;;;7.28;76.11
79465;BME280;68932;47.410;8.232;2023-04-03T01:26:59;97209.83;;;7.12;75.83
79465;BME280;68932;47.410;8.232;2023-04-03T01:29:26;97215.73;;;7.09;75.78
79465;BME280;68932;47.410;8.232;2023-04-03T01:31:55;97216.45;;;7.05;75.46
79465;BME280;68932;47.410;8.232;2023-04-03T01:34:23;97217.70;;;7.00;75.39
79465;BME280;68932;47.410;8.232;2023-04-03T01:36:51;97217.52;;;6.97;75.48
79465;BME280;68932;47.410;8.232;2023-04-03T01:39:18;97221.23;;;6.93;75.15
79465;BME280;68932;47.410;8.232;2023-04-03T01:41:45;97219.08;;;6.90;75.31
79465;BME280;68932;47.410;8.232;2023-04-03T01:44:12;97219.81;;;6.89;75.26
79465;BME280;68932;47.410;8.232;2023-04-03T01:46:39;97213.64;;;6.87;75.24
79465;BME280;68932;47.410;8.232;2023-04-03T01:49:06;97215.91;;;6.87;75.20
79465;BME280;68932;47.410;8.232;2023-04-03T01:51:33;97216.60;;;6.87;75.31
79465;BME280;68932;47.410;8.232;2023-04-03T01:54:00;97217.75;;;6.85;75.11
79465;BME280;68932;47.410;8.232;2023-04-03T01:56:27;97215.48;;;6.81;74.94
79465;BME280;68932;47.410;8.232;2023-04-03T01:58:54;97215.19;;;6.80;75.31
79465;BME280;68932;47.410;8.232;2023-04-03T02:01:21;97218.95;;;6.77;75.16
79465;BME280;68932;47.410;8.232;2023-04-03T02:03:48;97223.58;;;6.75;75.07
79465;BME280;68932;47.410;8.232;2023-04-03T02:06:15;97225.80;;;6.73;75.00
79465;BME280;68932;47.410;8.232;2023-04-03T02:08:42;97233.34;;;6.68;74.74
79465;BME280;68932;47.410;8.232;2023-04-03T02:11:09;97235.21;;;6.61;74.53
79465;BME280;68932;47.410;8.232;2023-04-03T02:13:36;97236.66;;;6.56;74.48
79465;BME280;68932;47.410;8.232;2023-04-03T02:16:08;97235.84;;;6.51;74.40
79465;BME280;68932;47.410;8.232;2023-04-03T02:18:36;97237.72;;;6.49;74.56
79465;BME280;68932;47.410;8.232;2023-04-03T02:21:03;97237.26;;;6.47;74.42
79465;BME280;68932;47.410;8.232;2023-04-03T02:23:30;97242.25;;;6.44;74.57
79465;BME280;68932;47.410;8.232;2023-04-03T02:26:05;97242.23;;;6.41;74.65
79465;BME280;68932;47.410;8.232;2023-04-03T02:28:32;97241.42;;;6.39;74.90
79465;BME280;68932;47.410;8.232;2023-04-03T02:30:59;97241.41;;;6.39;74.60
79465;BME280;68932;47.410;8.232;2023-04-03T02:33:26;97239.79;;;6.37;74.45
79465;BME280;68932;47.410;8.232;2023-04-03T02:35:54;97239.56;;;6.34;74.36
79465;BME280;68932;47.410;8.232;2023-04-03T02:38:22;97234.62;;;6.32;74.47
79465;BME280;68932;47.410;8.232;2023-04-03T02:40:49;97234.91;;;6.29;74.36
79465;BME280;68932;47.410;8.232;2023-04-03T02:43:16;97239.49;;;6.24;74.05
79465;BME280;68932;47.410;8.232;2023-04-03T02:45:43;97242.48;;;6.19;74.19
79465;BME280;68932;47.410;8.232;2023-04-03T02:48:10;97246.51;;;6.15;73.89
79465;BME280;68932;47.410;8.232;2023-04-03T02:50:37;97243.73;;;6.11;73.77
79465;BME280;68932;47.410;8.232;2023-04-03T02:53:04;97241.35;;;6.06;73.69
79465;BME280;68932;47.410;8.232;2023-04-03T02:55:31;97241.66;;;6.02;73.75
79465;BME280;68932;47.410;8.232;2023-04-03T02:57:58;97240.79;;;5.98;73.69
79465;BME280;68932;47.410;8.232;2023-04-03T03:00:24;97239.92;;;5.94;73.64
79465;BME280;68932;47.410;8.232;2023-04-03T03:02:51;97240.66;;;5.89;73.61
79465;BME280;68932;47.410;8.232;2023-04-03T03:05:18;97243.62;;;5.84;73.69
79465;BME280;68932;47.410;8.232;2023-04-03T03:07:46;97243.21;;;5.81;73.68
79465;BME280;68932;47.410;8.232;2023-04-03T03:10:13;97244.35;;;5.79;73.63
79465;BME280;68932;47.410;8.232;2023-04-03T03:12:40;97247.86;;;5.79;73.75
79465;BME280;68932;47.410;8.232;2023-04-03T03:15:09;97248.16;;;5.75;73.74
79465;BME280;68932;47.410;8.232;2023-04-03T03:17:36;97240.94;;;5.74;73.87
79465;BME280;68932;47.410;8.232;2023-04-03T03:20:03;97244.94;;;5.74;74.07
79465;BME280;68932;47.410;8.232;2023-04-03T03:22:31;97241.52;;;5.72;74.10
79465;BME280;68932;47.410;8.232;2023-04-03T03:24:58;97240.08;;;5.73;74.04
79465;BME280;68932;47.410;8.232;2023-04-03T03:27:25;97243.67;;;5.75;74.09
79465;BME280;68932;47.410;8.232;2023-04-03T03:29:53;97246.89;;;5.73;73.90
79465;BME280;68932;47.410;8.232;2023-04-03T03:32:20;97244.92;;;5.70;73.74
79465;BME280;68932;47.410;8.232;2023-04-03T03:34:47;97243.88;;;5.66;73.62
79465;BME280;68932;47.410;8.232;2023-04-03T03:37:14;97240.31;;;5.59;73.56
79465;BME280;68932;47.410;8.232;2023-04-03T03:39:40;97243.86;;;5.53;73.69
79465;BME280;68932;47.410;8.232;2023-04-03T03:42:08;97243.58;;;5.52;73.82
79465;BME280;68932;47.410;8.232;2023-04-03T03:44:35;97245.23;;;5.54;73.95
79465;BME280;68932;47.410;8.232;2023-04-03T03:47:01;97247.16;;;5.53;73.69
79465;BME280;68932;47.410;8.232;2023-04-03T03:49:29;97248.60;;;5.52;73.99
79465;BME280;68932;47.410;8.232;2023-04-03T03:51:56;97247.59;;;5.52;73.95
79465;BME280;68932;47.410;8.232;2023-04-03T03:54:23;97247.61;;;5.47;73.81
79465;BME280;68932;47.410;8.232;2023-04-03T03:56:49;97247.11;;;5.42;73.91
79465;BME280;68932;47.410;8.232;2023-04-03T03:59:17;97250.20;;;5.43;74.22
79465;BME280;68932;47.410;8.232;2023-04-03T04:01:44;97253.38;;;5.42;74.09
79465;BME280;68932;47.410;8.232;2023-04-03T04:04:11;97252.29;;;5.43;74.34
79465;BME280;68932;47.410;8.232;2023-04-03T04:06:38;97253.98;;;5.44;74.51
79465;BME280;68932;47.410;8.232;2023-04-03T04:09:05;97260.94;;;5.44;74.46
79465;BME280;68932;47.410;8.232;2023-04-03T04:11:31;97257.48;;;5.44;74.51
79465;BME280;68932;47.410;8.232;2023-04-03T04:13:58;97253.79;;;5.40;74.47
79465;BME280;68932;47.410;8.232;2023-04-03T04:16:25;97254.35;;;5.39;74.52
79465;BME280;68932;47.410;8.232;2023-04-03T04:18:52;97255.17;;;5.40;74.37
79465;BME280;68932;47.410;8.232;2023-04-03T04:21:19;97256.15;;;5.38;74.14
79465;BME280;68932;47.410;8.232;2023-04-03T04:23:46;97260.33;;;5.33;73.98
79465;BME280;68932;47.410;8.232;2023-04-03T04:26:14;97263.13;;;5.29;74.02
79465;BME280;68932;47.410;8.232;2023-04-03T04:28:40;97256.64;;;5.26;74.15
79465;BME280;68932;47.410;8.232;2023-04-03T04:31:07;97259.11;;;5.25;74.27
79465;BME280;68932;47.410;8.232;2023-04-03T04:33:35;97258.84;;;5.23;74.24
79465;BME280;68932;47.410;8.232;2023-04-03T04:36:02;97255.40;;;5.22;73.74
79465;BME280;68932;47.410;8.232;2023-04-03T04:38:29;97257.71;;;5.20;73.67
79465;BME280;68932;47.410;8.232;2023-04-03T04:40:56;97256.23;;;5.18;73.40
79465;BME280;68932;47.410;8.232;2023-04-03T04:43:23;97261.20;;;5.15;73.13
79465;BME280;68932;47.410;8.232;2023-04-03T04:45:57;97259.69;;;5.14;72.88
79465;BME280;68932;47.410;8.232;2023-04-03T04:48:26;97258.34;;;5.09;72.22
79465;BME280;68932;47.410;8.232;2023-04-03T04:50:53;97260.00;;;5.02;71.17
79465;BME280;68932;47.410;8.232;2023-04-03T04:53:20;97261.64;;;4.95;70.84
79465;BME280;68932;47.410;8.232;2023-04-03T04:55:46;97259.58;;;4.90;70.82
79465;BME280;68932;47.410;8.232;2023-04-03T04:58:14;97266.30;;;4.88;70.82
79465;BME280;68932;47.410;8.232;2023-04-03T05:00:41;97274.76;;;4.85;70.83
79465;BME280;68932;47.410;8.232;2023-04-03T05:03:08;97280.39;;;4.83;71.09
79465;BME280;68932;47.410;8.232;2023-04-03T05:05:35;97279.59;;;4.80;71.05
79465;BME280;68932;47.410;8.232;2023-04-03T05:08:02;97281.29;;;4.77;71.02
79465;BME280;68932;47.410;8.232;2023-04-03T05:10:29;97287.73;;;4.76;71.08
79465;BME280;68932;47.410;8.232;2023-04-03T05:12:56;97290.66;;;4.76;70.96
79465;BME280;68932;47.410;8.232;2023-04-03T05:15:23;97289.96;;;4.77;70.70
79465;BME280;68932;47.410;8.232;2023-04-03T05:17:50;97291.02;;;4.76;70.34
79465;BME280;68932;47.410;8.232;2023-04-03T05:20:17;97294.66;;;4.76;70.40
79465;BME280;68932;47.410;8.232;2023-04-03T05:22:44;97295.48;;;4.78;70.40
79465;BME280;68932;47.410;8.232;2023-04-03T05:25:11;97299.77;;;4.79;70.21
79465;BME280;68932;47.410;8.232;2023-04-03T05:27:38;97300.27;;;4.80;70.42
79465;BME280;68932;47.410;8.232;2023-04-03T05:30:08;97306.11;;;4.82;70.29
79465;BME280;68932;47.410;8.232;2023-04-03T05:32:34;97307.86;;;4.81;70.17
79465;BME280;68932;47.410;8.232;2023-04-03T05:35:02;97312.23;;;4.80;69.79
79465;BME280;68932;47.410;8.232;2023-04-03T05:37:29;97313.36;;;4.78;69.63
79465;BME280;68932;47.410;8.232;2023-04-03T05:39:55;97317.26;;;4.76;69.59
79465;BME280;68932;47.410;8.232;2023-04-03T05:42:23;97318.80;;;4.76;69.29
79465;BME280;68932;47.410;8.232;2023-04-03T05:44:50;97317.45;;;4.75;68.91
79465;BME280;68932;47.410;8.232;2023-04-03T05:47:17;97316.73;;;4.76;69.05
79465;BME280;68932;47.410;8.232;2023-04-03T05:49:44;97318.52;;;4.79;69.24
79465;BME280;68932;47.410;8.232;2023-04-03T05:52:20;97320.15;;;4.83;69.36
79465;BME280;68932;47.410;8.232;2023-04-03T05:54:48;97321.30;;;4.84;69.05
79465;BME280;68932;47.410;8.232;2023-04-03T05:57:15;97320.87;;;4.87;69.11
79465;BME280;68932;47.410;8.232;2023-04-03T05:59:42;97322.73;;;4.88;68.78
79465;BME280;68932;47.410;8.232;2023-04-03T06:02:11;97321.66;;;4.89;68.41
79465;BME280;68932;47.410;8.232;2023-04-03T06:04:40;97326.54;;;4.88;68.27
79465;BME280;68932;47.410;8.232;2023-04-03T06:07:08;97331.66;;;4.86;67.63
79465;BME280;68932;47.410;8.232;2023-04-03T06:09:37;97333.67;;;4.83;67.48
79465;BME280;68932;47.410;8.232;2023-04-03T06:12:05;97334.64;;;4.85;67.45
79465;BME280;68932;47.410;8.232;2023-04-03T06:14:32;97336.14;;;4.87;67.36
79465;BME280;68932;47.410;8.232;2023-04-03T06:16:59;97334.75;;;4.91;67.53
79465;BME280;68932;47.410;8.232;2023-04-03T06:19:27;97335.09;;;4.96;67.01
79465;BME280;68932;47.410;8.232;2023-04-03T06:21:54;97341.08;;;4.99;67.08
79465;BME280;68932;47.410;8.232;2023-04-03T06:24:21;97335.14;;;5.00;66.29
79465;BME280;68932;47.410;8.232;2023-04-03T06:26:49;97341.30;;;5.02;66.01
79465;BME280;68932;47.410;8.232;2023-04-03T06:29:16;97339.92;;;5.02;65.16
79465;BME280;68932;47.410;8.232;2023-04-03T06:31:44;97342.63;;;4.99;64.62
79465;BME280;68932;47.410;8.232;2023-04-03T06:34:11;97345.64;;;4.93;63.86
79465;BME280;68932;47.410;8.232;2023-04-03T06:36:38;97350.64;;;4.85;63.61
79465;BME280;68932;47.410;8.232;2023-04-03T06:39:06;97348.20;;;4.80;63.77
79465;BME280;68932;47.410;8.232;2023-04-03T06:41:33;97349.17;;;4.77;63.44
79465;BME280;68932;47.410;8.232;2023-04-03T06:44:00;97351.54;;;4.74;63.18
79465;BME280;68932;47.410;8.232;2023-04-03T06:46:27;97350.89;;;4.73;62.91
79465;BME280;68932;47.410;8.232;2023-04-03T06:48:54;97351.71;;;4.69;62.18
79465;BME280;68932;47.410;8.232;2023-04-03T06:51:22;97350.48;;;4.65;61.76
79465;BME280;68932;47.410;8.232;2023-04-03T06:53:51;97352.96;;;4.64;62.10
79465;BME280;68932;47.410;8.232;2023-04-03T06:56:19;97352.19;;;4.66;62.29
79465;BME280;68932;47.410;8.232;2023-04-03T06:58:46;97354.69;;;4.69;62.16
79465;BME280;68932;47.410;8.232;2023-04-03T07:01:15;97354.85;;;4.74;62.34
79465;BME280;68932;47.410;8.232;2023-04-03T07:03:43;97354.78;;;4.80;62.08
79465;BME280;68932;47.410;8.232;2023-04-03T07:06:12;97355.69;;;4.84;61.24
79465;BME280;68932;47.410;8.232;2023-04-03T07:08:40;97358.11;;;4.85;61.22
79465;BME280;68932;47.410;8.232;2023-04-03T07:11:07;97355.81;;;4.81;60.77
79465;BME280;68932;47.410;8.232;2023-04-03T07:13:35;97357.00;;;4.77;60.40
79465;BME280;68932;47.410;8.232;2023-04-03T07:16:02;97356.93;;;4.74;60.43
79465;BME280;68932;47.410;8.232;2023-04-03T07:18:29;97358.58;;;4.76;60.68
79465;BME280;68932;47.410;8.232;2023-04-03T07:20:56;97359.14;;;4.80;60.83
79465;BME280;68932;47.410;8.232;2023-04-03T07:23:23;97362.59;;;4.86;60.17
79465;BME280;68932;47.410;8.232;2023-04-03T07:25:51;97359.76;;;4.87;60.00
79465;BME280;68932;47.410;8.232;2023-04-03T07:28:19;97359.08;;;4.91;60.48
79465;BME280;68932;47.410;8.232;2023-04-03T07:30:47;97360.52;;;4.94;60.41
79465;BME280;68932;47.410;8.232;2023-04-03T07:33:16;97363.90;;;4.97;59.87
79465;BME280;68932;47.410;8.232;2023-04-03T07:35:45;97363.52;;;4.98;59.73
79465;BME280;68932;47.410;8.232;2023-04-03T07:38:12;97364.05;;;4.98;59.29
79465;BME280;68932;47.410;8.232;2023-04-03T07:40:40;97367.05;;;5.01;59.77
79465;BME280;68932;47.410;8.232;2023-04-03T07:43:11;97367.70;;;5.07;59.76
79465;BME280;68932;47.410;8.232;2023-04-03T07:45:38;97373.23;;;5.07;58.28
79465;BME280;68932;47.410;8.232;2023-04-03T07:48:06;97372.05;;;5.07;57.99
79465;BME280;68932;47.410;8.232;2023-04-03T07:50:33;97373.80;;;5.06;57.70
79465;BME280;68932;47.410;8.232;2023-04-03T07:53:00;97370.46;;;5.03;57.11
79465;BME280;68932;47.410;8.232;2023-04-03T07:55:27;97376.85;;;5.04;57.36
79465;BME280;68932;47.410;8.232;2023-04-03T07:57:54;97377.45;;;5.02;56.26
79465;BME280;68932;47.410;8.232;2023-04-03T08:00:22;97376.76;;;5.02;57.24
79465;BME280;68932;47.410;8.232;2023-04-03T08:02:49;97372.07;;;5.06;57.27
79465;BME280;68932;47.410;8.232;2023-04-03T08:05:16;97377.57;;;5.13;57.16
79465;BME280;68932;47.410;8.232;2023-04-03T08:07:43;97373.13;;;5.15;56.76
79465;BME280;68932;47.410;8.232;2023-04-03T08:10:10;97377.70;;;5.18;56.79
79465;BME280;68932;47.410;8.232;2023-04-03T08:12:37;97376.46;;;5.19;55.67
79465;BME280;68932;47.410;8.232;2023-04-03T08:15:07;97376.70;;;5.17;54.96
79465;BME280;68932;47.410;8.232;2023-04-03T08:17:34;97374.35;;;5.15;54.90
79465;BME280;68932;47.410;8.232;2023-04-03T08:20:02;97371.51;;;5.16;55.86
79465;BME280;68932;47.410;8.232;2023-04-03T08:22:30;97376.06;;;5.20;55.64
79465;BME280;68932;47.410;8.232;2023-04-03T08:24:57;97375.81;;;5.23;55.72
79465;BME280;68932;47.410;8.232;2023-04-03T08:27:24;97375.23;;;5.24;55.39
79465;BME280;68932;47.410;8.232;2023-04-03T08:29:51;97373.43;;;5.21;54.72
79465;BME280;68932;47.410;8.232;2023-04-03T08:32:18;97375.48;;;5.22;55.25
79465;BME280;68932;47.410;8.232;2023-04-03T08:34:45;97372.89;;;5.26;55.16
79465;BME280;68932;47.410;8.232;2023-04-03T08:37:12;97373.73;;;5.32;55.63
79465;BME280;68932;47.410;8.232;2023-04-03T08:39:39;97375.48;;;5.35;55.13
79465;BME280;68932;47.410;8.232;2023-04-03T08:42:15;97372.64;;;5.37;54.94
79465;BME280;68932;47.410;8.232;2023-04-03T08:44:47;97373.69;;;5.42;55.62
79465;BME280;68932;47.410;8.232;2023-04-03T08:47:24;97372.46;;;5.46;54.93
79465;BME280;68932;47.410;8.232;2023-04-03T08:49:57;97368.48;;;5.50;55.50
79465;BME280;68932;47.410;8.232;2023-04-03T08:52:34;97373.67;;;5.60;56.00
79465;BME280;68932;47.410;8.232;2023-04-03T08:55:06;97368.88;;;5.71;56.69
79465;BME280;68932;47.410;8.232;2023-04-03T08:57:38;97370.73;;;5.85;56.79
79465;BME280;68932;47.410;8.232;2023-04-03T09:00:17;97375.45;;;5.98;56.56
79465;BME280;68932;47.410;8.232;2023-04-03T09:02:47;97372.85;;;6.07;55.51
79465;BME280;68932;47.410;8.232;2023-04-03T09:05:16;97372.73;;;6.10;54.81
79465;BME280;68932;47.410;8.232;2023-04-03T09:07:45;97372.59;;;6.09;54.25
79465;BME280;68932;47.410;8.232;2023-04-03T09:10:18;97375.88;;;6.14;55.14
79465;BME280;68932;47.410;8.232;2023-04-03T09:12:51;97378.73;;;6.20;54.94
79465;BME280;68932;47.410;8.232;2023-04-03T09:15:22;97376.75;;;6.26;54.65
79465;BME280;68932;47.410;8.232;2023-04-03T09:17:59;97376.68;;;6.32;54.13
79465;BME280;68932;47.410;8.232;2023-04-03T09:20:39;97376.81;;;6.37;54.03
79465;BME280;68932;47.410;8.232;2023-04-03T09:23:21;97377.08;;;6.39;52.73
79465;BME280;68932;47.410;8.232;2023-04-03T09:25:49;97374.94;;;6.36;52.49
79465;BME280;68932;47.410;8.232;2023-04-03T09:28:18;97379.21;;;6.37;52.63
79465;BME280;68932;47.410;8.232;2023-04-03T09:30:45;97378.50;;;6.42;53.25
79465;BME280;68932;47.410;8.232;2023-04-03T09:33:13;97373.95;;;6.51;53.86
79465;BME280;68932;47.410;8.232;2023-04-03T09:35:41;97378.10;;;6.60;53.26
79465;BME280;68932;47.410;8.232;2023-04-03T09:38:20;97376.85;;;6.64;52.90
79465;BME280;68932;47.410;8.232;2023-04-03T09:40:49;97371.30;;;6.68;52.82
79465;BME280;68932;47.410;8.232;2023-04-03T09:43:26;97373.80;;;6.74;53.71
79465;BME280;68932;47.410;8.232;2023-04-03T09:45:54;97372.50;;;6.80;52.70
79465;BME280;68932;47.410;8.232;2023-04-03T09:48:23;97379.23;;;6.82;52.10
79465;BME280;68932;47.410;8.232;2023-04-03T09:50:57;97377.90;;;6.80;51.59
79465;BME280;68932;47.410;8.232;2023-04-03T09:53:29;97381.19;;;6.77;51.41
79465;BME280;68932;47.410;8.232;2023-04-03T09:55:57;97381.30;;;6.74;51.50
79465;BME280;68932;47.410;8.232;2023-04-03T09:58:27;97383.35;;;6.71;51.12
79465;BME280;68932;47.410;8.232;2023-04-03T10:00:56;97386.94;;;6.65;51.06
79465;BME280;68932;47.410;8.232;2023-04-03T10:03:27;97382.52;;;6.63;51.58
79465;BME280;68932;47.410;8.232;2023-04-03T10:05:55;97381.94;;;6.64;51.84
79465;BME280;68932;47.410;8.232;2023-04-03T10:08:25;97380.54;;;6.64;51.25
79465;BME280;68932;47.410;8.232;2023-04-03T10:11:10;97382.84;;;6.63;51.50
79465;BME280;68932;47.410;8.232;2023-04-03T10:13:50;97381.84;;;6.62;51.59
79465;BME280;68932;47.410;8.232;2023-04-03T10:16:20;97384.35;;;6.65;52.33
79465;BME280;68932;47.410;8.232;2023-04-03T10:18:54;97381.50;;;6.70;52.12
79465;BME280;68932;47.410;8.232;2023-04-03T10:21:32;97379.17;;;6.71;51.90
79465;BME280;68932;47.410;8.232;2023-04-03T10:24:08;97376.36;;;6.72;52.50
79465;BME280;68932;47.410;8.232;2023-04-03T10:26:41;97377.25;;;6.75;52.67
79465;BME280;68932;47.410;8.232;2023-04-03T10:29:20;97378.59;;;6.80;52.62
79465;BME280;68932;47.410;8.232;2023-04-03T10:31:58;97374.62;;;6.84;52.20
79465;BME280;68932;47.410;8.232;2023-04-03T10:34:31;97369.85;;;6.86;51.98
79465;BME280;68932;47.410;8.232;2023-04-03T10:37:06;97371.67;;;6.87;52.24
79465;BME280;68932;47.410;8.232;2023-04-03T10:39:45;97367.28;;;6.85;51.41
79465;BME280;68932;47.410;8.232;2023-04-03T10:42:18;97366.08;;;6.76;51.14
79465;BME280;68932;47.410;8.232;2023-04-03T10:45:01;97366.55;;;6.73;51.59
79465;BME280;68932;47.410;8.232;2023-04-03T10:47:34;97364.42;;;6.66;50.82
79465;BME280;68932;47.410;8.232;2023-04-03T10:50:22;97370.72;;;6.61;51.65
79465;BME280;68932;47.410;8.232;2023-04-03T10:52:57;97368.61;;;6.62;52.01
79465;BME280;68932;47.410;8.232;2023-04-03T10:55:33;97366.54;;;6.62;51.91
79465;BME280;68932;47.410;8.232;2023-04-03T10:58:02;97359.46;;;6.60;51.40
79465;BME280;68932;47.410;8.232;2023-04-03T11:00:36;97358.30;;;6.59;51.97
79465;BME280;68932;47.410;8.232;2023-04-03T11:03:08;97360.06;;;6.62;52.15
79465;BME280;68932;47.410;8.232;2023-04-03T11:05:42;97354.00;;;6.66;51.90
79465;BME280;68932;47.410;8.232;2023-04-03T11:08:10;97350.86;;;6.69;51.73
79465;BME280;68932;47.410;8.232;2023-04-03T11:10:42;97352.39;;;6.70;52.12
79465;BME280;68932;47.410;8.232;2023-04-03T11:13:13;97348.91;;;6.74;52.69
79465;BME280;68932;47.410;8.232;2023-04-03T11:15:42;97353.35;;;6.80;52.75
79465;BME280;68932;47.410;8.232;2023-04-03T11:18:13;97350.05;;;6.84;52.29
79465;BME280;68932;47.410;8.232;2023-04-03T11:20:44;97347.29;;;6.91;52.59
79465;BME280;68932;47.410;8.232;2023-04-03T11:23:21;97347.27;;;7.03;52.97
79465;BME280;68932;47.410;8.232;2023-04-03T11:25:52;97344.52;;;7.13;52.73
79465;BME280;68932;47.410;8.232;2023-04-03T11:28:21;97342.10;;;7.20;51.88
79465;BME280;68932;47.410;8.232;2023-04-03T11:30:51;97339.83;;;7.21;51.28
79465;BME280;68932;47.410;8.232;2023-04-03T11:33:32;97335.20;;;7.15;50.88
79465;BME280;68932;47.410;8.232;2023-04-03T11:36:06;97334.58;;;7.10;51.38
79465;BME280;68932;47.410;8.232;2023-04-03T11:38:37;97337.02;;;7.06;51.32
79465;BME280;68932;47.410;8.232;2023-04-03T11:41:07;97335.79;;;7.03;51.69
79465;BME280;68932;47.410;8.232;2023-04-03T11:43:41;97340.24;;;7.00;51.97
79465;BME280;68932;47.410;8.232;2023-04-03T11:46:08;97341.23;;;6.97;52.05
79465;BME280;68932;47.410;8.232;2023-04-03T11:48:50;97341.69;;;6.91;51.80
79465;BME280;68932;47.410;8.232;2023-04-03T11:51:50;97339.73;;;6.88;52.04
79465;BME280;68932;47.410;8.232;2023-04-03T11:54:46;97333.67;;;6.88;51.96
79465;BME280;68932;47.410;8.232;2023-04-03T11:57:44;97329.23;;;6.93;52.30
79465;BME280;68932;47.410;8.232;2023-04-03T12:00:50;97329.17;;;6.98;51.95
79465;BME280;68932;47.410;8.232;2023-04-03T12:12:31;97312.90;;;7.41;53.33
79465;BME280;68932;47.410;8.232;2023-04-03T12:15:18;97315.15;;;7.63;53.22
79465;BME280;68932;47.410;8.232;2023-04-03T12:17:46;97316.31;;;7.75;51.98
79465;BME280;68932;47.410;8.232;2023-04-03T12:20:53;97308.39;;;7.80;52.17
79465;BME280;68932;47.410;8.232;2023-04-03T12:23:28;97306.63;;;7.80;51.33
79465;BME280;68932;47.410;8.232;2023-04-03T12:26:05;97307.48;;;7.78;51.82
79465;BME280;68932;47.410;8.232;2023-04-03T12:28:38;97309.51;;;7.79;52.58
79465;BME280;68932;47.410;8.232;2023-04-03T12:31:09;97309.93;;;7.81;52.49
79465;BME280;68932;47.410;8.232;2023-04-03T12:33:47;97308.14;;;7.81;52.55
79465;BME280;68932;47.410;8.232;2023-04-03T12:36:26;97310.05;;;7.78;52.34
79465;BME280;68932;47.410;8.232;2023-04-03T12:39:10;97311.71;;;7.76;52.49
79465;BME280;68932;47.410;8.232;2023-04-03T12:41:44;97310.45;;;7.66;51.86
79465;BME280;68932;47.410;8.232;2023-04-03T12:44:30;97312.79;;;7.54;51.88
79465;BME280;68932;47.410;8.232;2023-04-03T12:47:04;97310.01;;;7.39;52.16
79465;BME280;68932;47.410;8.232;2023-04-03T12:49:39;97308.35;;;7.27;52.32
79465;BME280;68932;47.410;8.232;2023-04-03T12:52:29;97308.49;;;7.20;52.47
79465;BME280;68932;47.410;8.232;2023-04-03T12:54:57;97306.55;;;7.13;52.69
79465;BME280;68932;47.410;8.232;2023-04-03T12:57:26;97306.71;;;7.13;53.10
79465;BME280;68932;47.410;8.232;2023-04-03T12:59:53;97302.71;;;7.21;53.55
79465;BME280;68932;47.410;8.232;2023-04-03T13:02:25;97297.30;;;7.28;53.27
79465;BME280;68932;47.410;8.232;2023-04-03T13:04:54;97299.89;;;7.32;52.85
79465;BME280;68932;47.410;8.232;2023-04-03T13:07:24;97300.61;;;7.39;52.53
79465;BME280;68932;47.410;8.232;2023-04-03T13:10:03;97297.48;;;7.42;52.11
79465;BME280;68932;47.410;8.232;2023-04-03T13:12:31;97291.11;;;7.48;52.06
79465;BME280;68932;47.410;8.232;2023-04-03T13:14:59;97292.30;;;7.52;52.20
79465;BME280;68932;47.410;8.232;2023-04-03T13:17:28;97286.29;;;7.61;53.17
79465;BME280;68932;47.410;8.232;2023-04-03T13:19:55;97286.34;;;7.71;53.29
79465;BME280;68932;47.410;8.232;2023-04-03T13:22:38;97283.93;;;7.73;52.22
79465;BME280;68932;47.410;8.232;2023-04-03T13:25:09;97285.69;;;7.73;51.86
79465;BME280;68932;47.410;8.232;2023-04-03T13:27:39;97283.96;;;7.73;51.90
79465;BME280;68932;47.410;8.232;2023-04-03T13:30:20;97279.84;;;7.75;52.56
79465;BME280;68932;47.410;8.232;2023-04-03T13:32:49;97277.30;;;7.80;52.43
79465;BME280;68932;47.410;8.232;2023-04-03T13:35:28;97285.11;;;7.88;52.26
79465;BME280;68932;47.410;8.232;2023-04-03T13:37:57;97283.98;;;7.97;52.35
79465;BME280;68932;47.410;8.232;2023-04-03T13:40:25;97279.71;;;8.06;52.33